Time;durP1;ratioP1;P1;durP2;ratioP2;P2;SDS_P1;SDS_P2;PMS_P1;PMS_P2;Temp;Humidity;BMP_temperature;BMP_pressure;BME280_temperature;BME280_humidity;BME280_pressure;Samples;Min_cycle;Max_cycle;Signal;HPM_P1;HPM_P2
2023/07/13 00:00:40;;;;;;;;;;;15.30;99.90;;;;;;5100550;28;20030;-86
2023/07/13 00:03:08;;;;;;;;;;;15.30;99.90;;;;;;5109637;28;19985;-86
2023/07/13 00:05:34;;;;;;;;;;;15.30;99.90;;;;;;5109912;28;19925;-87
2023/07/13 00:08:02;;;;;;;;;;;15.30;99.90;;;;;;5109670;28;19977;-86
2023/07/13 00:10:28;;;;;;;;;;;15.30;99.90;;;;;;5075257;28;20027;-86
2023/07/13 00:12:54;;;;;;;;;;;15.40;99.90;;;;;;5121729;27;19964;-85
2023/07/13 00:15:23;;;;;;;;;;;15.30;99.90;;;;;;5089318;28;19924;-86
2023/07/13 00:17:51;;;;;;;;;;;15.40;99.90;;;;;;5071617;28;19924;-86
2023/07/13 00:20:17;;;;;;;;;;;15.30;99.90;;;;;;5092275;28;19935;-87
2023/07/13 00:22:43;;;;;;;;;;;15.60;99.90;;;;;;5126441;27;19924;-86
2023/07/13 00:25:10;;;;;;;;;;;15.40;99.90;;;;;;5075573;28;19924;-87
2023/07/13 00:27:36;;;;;;;;;;;14.80;99.90;;;;;;5092096;28;19924;-86
2023/07/13 00:30:14;;;;;;;;;;;;;;;;;;;;;
2023/07/13 00:32:40;;;;;;;;;;;15.50;99.90;;;;;;5092301;28;19924;-87
2023/07/13 00:35:09;;;;;;;;;;;15.50;99.90;;;;;;5058691;28;19954;-86
2023/07/13 00:37:37;;;;;;;;;;;15.50;99.90;;;;;;5109231;28;19924;-86
2023/07/13 00:40:06;;;;;;;;;;;15.50;99.90;;;;;;5108587;28;19924;-87
2023/07/13 00:42:31;;;;;;;;;;;15.60;99.90;;;;;;5057745;28;19947;-86
2023/07/13 00:45:03;;;;;;;;;;;15.60;99.90;;;;;;5074906;28;20380;-86
2023/07/13 00:47:29;;;;;;;;;;;15.60;99.90;;;;;;5116357;28;20411;-86
2023/07/13 00:49:54;;;;;;;;;;;15.60;99.90;;;;;;5075037;28;19964;-87
2023/07/13 00:52:21;;;;;;;;;;;15.60;99.90;;;;;;5092075;28;19924;-86
2023/07/13 00:54:46;;;;;;;;;;;15.60;99.90;;;;;;5058403;28;20381;-85
2023/07/13 00:57:14;;;;;;;;;;;15.60;99.90;;;;;;5091416;28;19979;-86
2023/07/13 00:59:41;;;;;;;;;;;15.50;99.90;;;;;;5109229;28;19994;-86
2023/07/13 01:02:07;;;;;;;;;;;15.60;99.90;;;;;;5095810;28;19928;-86
2023/07/13 01:04:33;;;;;;;;;;;15.50;99.90;;;;;;5130424;27;20269;-87
2023/07/13 01:07:02;;;;;;;;;;;15.50;99.90;;;;;;5112946;28;19935;-86
2023/07/13 01:09:27;;;;;;;;;;;15.50;99.90;;;;;;5062088;28;19931;-88
2023/07/13 01:11:53;;;;;;;;;;;15.40;99.90;;;;;;5070670;28;19924;-86
2023/07/13 01:14:22;;;;;;;;;;;15.40;99.90;;;;;;5078811;28;19924;-87
2023/07/13 01:16:48;;;;;;;;;;;15.30;99.90;;;;;;5078473;28;19924;-86
2023/07/13 01:19:35;;;;;;;;;;;15.30;99.90;;;;;;5095955;28;20023;-87
2023/07/13 01:22:17;;;;;;;;;;;15.20;99.90;;;;;;5090384;28;19964;-86
2023/07/13 01:24:44;;;;;;;;;;;15.20;99.90;;;;;;5094664;28;20283;-86
2023/07/13 01:27:11;;;;;;;;;;;15.10;99.90;;;;;;5094812;28;19924;-86
2023/07/13 01:29:43;;;;;;;;;;;15.10;99.90;;;;;;5095528;28;20015;-86
2023/07/13 01:32:13;;;;;;;;;;;15.10;99.90;;;;;;5078586;28;19924;-86
2023/07/13 01:34:42;;;;;;;;;;;15.10;99.90;;;;;;5112906;28;19924;-85
2023/07/13 01:37:08;;;;;;;;;;;15.10;99.90;;;;;;5078267;28;19924;-85
2023/07/13 01:39:34;;;;;;;;;;;15.10;99.90;;;;;;5077969;28;20416;-85
2023/07/13 01:42:00;;;;;;;;;;;15.10;99.90;;;;;;5076998;28;19963;-85
2023/07/13 01:44:25;;;;;;;;;;;15.20;99.90;;;;;;5064380;28;19924;-85
2023/07/13 01:46:51;;;;;;;;;;;15.20;99.90;;;;;;5100422;28;19912;-87
2023/07/13 01:49:17;;;;;;;;;;;15.20;99.90;;;;;;5117541;28;19924;-85
2023/07/13 01:51:42;;;;;;;;;;;15.50;99.90;;;;;;5118632;28;19989;-86
2023/07/13 01:54:08;;;;;;;;;;;15.20;99.90;;;;;;5074603;28;19932;-85
2023/07/13 01:56:37;;;;;;;;;;;15.30;99.90;;;;;;5132673;28;19912;-86
2023/07/13 01:59:02;;;;;;;;;;;15.30;99.90;;;;;;5097675;28;19935;-85
2023/07/13 02:01:28;;;;;;;;;;;15.30;99.90;;;;;;5110285;28;19924;-86
2023/07/13 02:03:54;;;;;;;;;;;15.30;99.90;;;;;;5074276;28;20021;-86
2023/07/13 02:06:19;;;;;;;;;;;15.30;99.90;;;;;;5095919;28;19924;-85
2023/07/13 02:08:45;;;;;;;;;;;15.30;99.90;;;;;;5097036;28;19935;-85
2023/07/13 02:11:10;;;;;;;;;;;15.30;99.90;;;;;;5060388;28;19924;-85
2023/07/13 02:13:36;;;;;;;;;;;15.30;99.90;;;;;;5095059;28;19951;-86
2023/07/13 02:16:02;;;;;;;;;;;15.30;99.90;;;;;;5101128;28;19974;-86
2023/07/13 02:18:30;;;;;;;;;;;15.30;99.90;;;;;;5060950;28;19935;-86
2023/07/13 02:20:55;;;;;;;;;;;15.30;99.90;;;;;;5094472;28;19924;-86
2023/07/13 02:23:21;;;;;;;;;;;15.30;99.90;;;;;;5077442;28;19931;-86
2023/07/13 02:25:47;;;;;;;;;;;15.30;99.90;;;;;;5111253;28;19982;-87
2023/07/13 02:28:12;;;;;;;;;;;15.30;99.90;;;;;;5079157;28;19924;-86
2023/07/13 02:30:38;;;;;;;;;;;15.30;99.90;;;;;;5112008;28;19935;-85
2023/07/13 02:33:04;;;;;;;;;;;15.20;99.90;;;;;;5095055;28;19924;-86
2023/07/13 02:35:30;;;;;;;;;;;15.20;99.90;;;;;;5078058;28;19931;-86
2023/07/13 02:37:56;;;;;;;;;;;15.10;99.90;;;;;;5080879;28;19924;-85
2023/07/13 02:40:22;;;;;;;;;;;15.10;99.90;;;;;;5077112;28;19924;-86
2023/07/13 02:42:48;;;;;;;;;;;15.00;99.90;;;;;;5111087;28;19924;-86
2023/07/13 02:45:13;;;;;;;;;;;15.00;99.90;;;;;;5056939;28;19951;-86
2023/07/13 02:47:40;;;;;;;;;;;14.90;99.90;;;;;;5091430;28;19924;-86
2023/07/13 02:50:05;;;;;;;;;;;14.90;99.90;;;;;;5090926;28;19928;-86
2023/07/13 02:52:31;;;;;;;;;;;14.80;99.90;;;;;;5104713;28;19924;-86
2023/07/13 02:54:57;;;;;;;;;;;14.80;99.90;;;;;;5102794;28;20260;-86
2023/07/13 02:57:22;;;;;;;;;;;14.80;99.90;;;;;;5110430;28;19950;-86
2023/07/13 02:59:48;;;;;;;;;;;14.70;99.90;;;;;;5077436;28;19924;-86
2023/07/13 03:02:13;;;;;;;;;;;14.70;99.90;;;;;;5111030;28;19932;-86
2023/07/13 03:04:40;;;;;;;;;;;14.70;99.90;;;;;;5077322;28;20011;-86
2023/07/13 03:07:06;;;;;;;;;;;14.60;99.90;;;;;;5094018;28;19973;-86
2023/07/13 03:09:32;;;;;;;;;;;14.70;99.90;;;;;;5060188;28;20359;-86
2023/07/13 03:11:58;;;;;;;;;;;14.60;99.90;;;;;;5127006;27;20012;-86
2023/07/13 03:14:24;;;;;;;;;;;14.60;99.90;;;;;;5067840;28;20352;-86
2023/07/13 03:16:50;;;;;;;;;;;14.60;99.90;;;;;;5076352;28;19924;-85
2023/07/13 03:19:15;;;;;;;;;;;14.50;99.90;;;;;;5093819;28;19924;-86
2023/07/13 03:21:41;;;;;;;;;;;14.50;99.90;;;;;;5093397;28;19928;-86
2023/07/13 03:24:07;;;;;;;;;;;14.50;99.90;;;;;;5059253;28;20050;-85
2023/07/13 03:26:32;;;;;;;;;;;14.50;99.90;;;;;;5075998;28;19924;-86
2023/07/13 03:28:58;;;;;;;;;;;14.40;99.90;;;;;;5090266;28;19931;-87
2023/07/13 03:31:25;;;;;;;;;;;14.40;99.90;;;;;;5110425;28;19967;-85
2023/07/13 03:33:51;;;;;;;;;;;14.40;99.90;;;;;;5127677;27;20318;-86
2023/07/13 03:36:19;;;;;;;;;;;14.40;99.90;;;;;;5110219;28;19928;-86
2023/07/13 03:38:49;;;;;;;;;;;14.40;99.90;;;;;;5110311;28;19975;-86
2023/07/13 03:41:16;;;;;;;;;;;14.40;99.90;;;;;;5113328;27;19924;-86
2023/07/13 03:43:42;;;;;;;;;;;14.50;99.90;;;;;;5076457;28;20441;-86
2023/07/13 03:46:08;;;;;;;;;;;14.50;99.90;;;;;;5092729;28;19967;-85
2023/07/13 03:48:33;;;;;;;;;;;14.50;99.90;;;;;;5059734;28;19963;-86
2023/07/13 03:50:59;;;;;;;;;;;14.60;99.90;;;;;;5093035;28;20275;-87
2023/07/13 03:53:25;;;;;;;;;;;14.60;99.90;;;;;;5076534;28;20280;-85
2023/07/13 03:55:51;;;;;;;;;;;14.70;99.90;;;;;;5092478;28;19931;-86
2023/07/13 03:58:26;;;;;;;;;;;14.70;99.90;;;;;;5048912;28;19928;-87
2023/07/13 04:00:51;;;;;;;;;;;14.80;99.90;;;;;;5092684;28;19931;-85
2023/07/13 04:03:17;;;;;;;;;;;14.80;99.90;;;;;;5092969;28;19928;-85
2023/07/13 04:05:43;;;;;;;;;;;14.80;99.90;;;;;;5092488;28;20026;-86
2023/07/13 04:08:08;;;;;;;;;;;14.80;99.90;;;;;;5076030;28;19967;-86
2023/07/13 04:10:34;;;;;;;;;;;14.80;99.90;;;;;;5075379;28;20398;-86
2023/07/13 04:13:00;;;;;;;;;;;14.80;99.90;;;;;;5092352;28;19932;-86
2023/07/13 04:15:26;;;;;;;;;;;14.80;99.90;;;;;;5059239;28;20371;-85
2023/07/13 04:17:51;;;;;;;;;;;14.80;99.90;;;;;;5075432;28;20383;-86
2023/07/13 04:20:17;;;;;;;;;;;14.80;99.90;;;;;;5075814;28;19928;-86
2023/07/13 04:22:43;;;;;;;;;;;14.90;99.90;;;;;;5109573;28;19924;-86
2023/07/13 04:25:08;;;;;;;;;;;14.90;99.90;;;;;;5056051;28;19948;-86
2023/07/13 04:27:34;;;;;;;;;;;14.90;99.90;;;;;;5091008;28;19932;-86
2023/07/13 04:29:59;;;;;;;;;;;14.90;99.90;;;;;;5059596;28;19925;-85
2023/07/13 04:32:25;;;;;;;;;;;14.90;99.90;;;;;;5080614;28;19975;-86
2023/07/13 04:34:53;;;;;;;;;;;14.90;99.90;;;;;;5059800;28;19924;-85
2023/07/13 04:37:19;;;;;;;;;;;14.90;99.90;;;;;;5075558;28;19973;-85
2023/07/13 04:39:45;;;;;;;;;;;15.00;99.90;;;;;;5092018;28;20023;-86
2023/07/13 04:42:11;;;;;;;;;;;15.20;99.90;;;;;;5108270;28;19979;-85
2023/07/13 04:44:36;;;;;;;;;;;15.30;99.90;;;;;;5094964;28;19928;-85
2023/07/13 04:47:02;;;;;;;;;;;15.30;99.90;;;;;;5102206;28;20018;-85
2023/07/13 04:49:27;;;;;;;;;;;15.30;99.90;;;;;;5058713;28;19924;-87
2023/07/13 04:51:54;;;;;;;;;;;15.40;99.90;;;;;;5075393;28;19924;-85
2023/07/13 04:54:21;;;;;;;;;;;15.40;99.90;;;;;;5075746;28;19932;-85
2023/07/13 04:56:46;;;;;;;;;;;15.50;99.90;;;;;;5091172;28;20257;-85
2023/07/13 04:59:12;;;;;;;;;;;15.50;99.90;;;;;;5055570;28;19931;-85
2023/07/13 05:01:37;;;;;;;;;;;15.50;99.90;;;;;;5047072;28;19924;-85
2023/07/13 05:04:03;;;;;;;;;;;15.60;99.90;;;;;;5064183;28;19924;-86
2023/07/13 05:06:30;;;;;;;;;;;15.70;99.90;;;;;;5098683;28;19924;-87
2023/07/13 05:08:55;;;;;;;;;;;15.70;99.90;;;;;;5133900;28;19935;-86
2023/07/13 05:11:21;;;;;;;;;;;15.70;99.90;;;;;;5109785;28;20459;-85
2023/07/13 05:13:47;;;;;;;;;;;15.70;99.90;;;;;;5099357;28;19935;-85
2023/07/13 05:16:12;;;;;;;;;;;15.70;99.90;;;;;;5124073;28;20380;-86
2023/07/13 05:18:38;;;;;;;;;;;15.80;99.90;;;;;;5105824;28;19925;-86
2023/07/13 05:21:05;;;;;;;;;;;15.90;99.90;;;;;;5077487;28;19924;-85
2023/07/13 05:23:31;;;;;;;;;;;15.90;99.90;;;;;;5075888;28;19924;-85
2023/07/13 05:25:57;;;;;;;;;;;15.90;99.90;;;;;;5110880;28;20380;-86
2023/07/13 05:28:23;;;;;;;;;;;15.90;99.90;;;;;;5091871;28;20018;-86
2023/07/13 05:30:49;;;;;;;;;;;15.90;99.90;;;;;;5074783;28;19989;-85
2023/07/13 05:33:15;;;;;;;;;;;15.90;99.90;;;;;;5109060;28;19926;-85
2023/07/13 05:35:41;;;;;;;;;;;15.90;99.90;;;;;;5092165;28;19924;-85
2023/07/13 05:38:06;;;;;;;;;;;15.90;99.90;;;;;;5091844;28;19928;-86
2023/07/13 05:40:32;;;;;;;;;;;16.00;99.90;;;;;;5073888;28;19979;-85
2023/07/13 05:42:58;;;;;;;;;;;16.00;99.90;;;;;;5091331;28;19924;-85
2023/07/13 05:45:23;;;;;;;;;;;16.10;99.90;;;;;;5074989;28;20387;-86
2023/07/13 05:47:49;;;;;;;;;;;16.10;99.90;;;;;;5094441;28;19982;-86
2023/07/13 05:50:14;;;;;;;;;;;16.10;99.90;;;;;;5078416;28;19924;-87
2023/07/13 05:52:40;;;;;;;;;;;16.10;99.90;;;;;;5086333;28;19975;-86
2023/07/13 05:55:06;;;;;;;;;;;16.20;99.90;;;;;;5061432;28;19923;-87
2023/07/13 05:57:31;;;;;;;;;;;16.20;99.90;;;;;;5104028;28;19931;-86
2023/07/13 05:59:57;;;;;;;;;;;16.30;99.90;;;;;;5093919;28;19924;-86
2023/07/13 06:02:23;;;;;;;;;;;16.40;99.90;;;;;;5095052;28;20287;-86
2023/07/13 06:04:48;;;;;;;;;;;16.40;99.90;;;;;;5082440;28;19935;-87
2023/07/13 06:07:14;;;;;;;;;;;16.50;99.90;;;;;;5061778;28;20466;-85
2023/07/13 06:09:40;;;;;;;;;;;16.50;99.90;;;;;;5112129;28;19978;-86
2023/07/13 06:12:06;;;;;;;;;;;16.70;99.90;;;;;;5094107;28;19945;-86
2023/07/13 06:14:31;;;;;;;;;;;16.70;99.90;;;;;;5111957;28;19924;-86
2023/07/13 06:16:57;;;;;;;;;;;16.70;99.90;;;;;;5054470;28;19931;-86
2023/07/13 06:19:23;;;;;;;;;;;16.80;99.90;;;;;;5078322;28;19924;-87
2023/07/13 06:21:48;;;;;;;;;;;16.80;99.90;;;;;;5052166;28;19978;-86
2023/07/13 06:24:14;;;;;;;;;;;16.90;99.90;;;;;;5094847;28;19924;-86
2023/07/13 06:26:39;;;;;;;;;;;17.00;99.90;;;;;;5077152;28;19947;-85
2023/07/13 06:29:05;;;;;;;;;;;17.00;99.90;;;;;;5111770;28;20402;-85
2023/07/13 06:31:31;;;;;;;;;;;17.00;99.90;;;;;;5058729;28;19924;-86
2023/07/13 06:33:56;;;;;;;;;;;17.10;99.90;;;;;;5061249;28;20276;-87
2023/07/13 06:36:22;;;;;;;;;;;17.20;99.90;;;;;;5060606;28;20001;-86
2023/07/13 06:38:50;;;;;;;;;;;17.40;99.90;;;;;;5077855;28;19924;-86
2023/07/13 06:41:16;;;;;;;;;;;17.50;99.90;;;;;;5075984;28;19928;-86
2023/07/13 06:43:42;;;;;;;;;;;17.60;99.90;;;;;;5094695;28;19971;-85
2023/07/13 06:46:07;;;;;;;;;;;17.70;99.90;;;;;;5110979;28;19930;-86
2023/07/13 06:48:33;;;;;;;;;;;17.60;99.90;;;;;;5094566;28;19924;-85
2023/07/13 06:50:59;;;;;;;;;;;17.70;99.90;;;;;;5111433;28;20364;-89
2023/07/13 06:53:25;;;;;;;;;;;17.70;99.90;;;;;;5077415;28;19923;-85
2023/07/13 06:55:51;;;;;;;;;;;17.80;99.90;;;;;;5105513;28;20441;-84
2023/07/13 06:58:19;;;;;;;;;;;17.90;99.90;;;;;;5074522;28;20398;-85
2023/07/13 07:00:45;;;;;;;;;;;18.00;99.90;;;;;;5094101;28;19989;-86
2023/07/13 07:03:10;;;;;;;;;;;18.10;99.90;;;;;;5101438;28;19924;-88
2023/07/13 07:05:36;;;;;;;;;;;18.20;99.90;;;;;;5077325;28;19935;-86
2023/07/13 07:08:02;;;;;;;;;;;18.30;99.90;;;;;;5077222;28;19924;-87
2023/07/13 07:10:29;;;;;;;;;;;18.50;99.90;;;;;;5110600;28;19928;-87
2023/07/13 07:12:54;;;;;;;;;;;18.60;99.90;;;;;;5076400;28;19931;-85
2023/07/13 07:15:20;;;;;;;;;;;18.70;99.90;;;;;;5111047;28;19924;-86
2023/07/13 07:17:46;;;;;;;;;;;18.70;99.90;;;;;;5093498;28;20502;-87
2023/07/13 07:20:12;;;;;;;;;;;18.70;99.90;;;;;;5093603;28;20224;-86
2023/07/13 07:22:37;;;;;;;;;;;18.60;99.90;;;;;;5076857;28;19969;-85
2023/07/13 07:25:03;;;;;;;;;;;18.40;99.90;;;;;;5077040;28;19924;-86
2023/07/13 07:27:29;;;;;;;;;;;18.20;99.90;;;;;;5109409;28;19924;-86
2023/07/13 07:29:55;;;;;;;;;;;18.10;99.90;;;;;;5110277;28;19924;-86
2023/07/13 07:32:20;;;;;;;;;;;18.00;99.90;;;;;;5093429;28;19939;-86
2023/07/13 07:34:46;;;;;;;;;;;18.00;99.90;;;;;;5076538;28;19928;-86
2023/07/13 07:37:12;;;;;;;;;;;18.00;99.90;;;;;;5093401;28;19924;-85
2023/07/13 07:39:38;;;;;;;;;;;18.00;99.90;;;;;;5076488;28;19924;-86
2023/07/13 07:42:04;;;;;;;;;;;18.00;99.90;;;;;;5075024;28;20276;-86
2023/07/13 07:44:33;;;;;;;;;;;18.00;99.90;;;;;;5059814;28;19924;-87
2023/07/13 07:46:59;;;;;;;;;;;18.10;99.90;;;;;;5059392;28;19924;-84
2023/07/13 07:49:25;;;;;;;;;;;18.20;99.90;;;;;;5088725;28;20271;-87
2023/07/13 07:51:50;;;;;;;;;;;18.20;99.90;;;;;;5075391;28;19925;-86
2023/07/13 07:54:16;;;;;;;;;;;18.20;99.90;;;;;;5093067;28;19931;-86
2023/07/13 07:56:42;;;;;;;;;;;18.10;99.90;;;;;;5075561;28;19953;-87
2023/07/13 07:59:08;;;;;;;;;;;18.00;99.90;;;;;;5076211;28;19924;-86
2023/07/13 08:01:33;;;;;;;;;;;17.90;99.90;;;;;;5092994;28;19924;-84
2023/07/13 08:03:59;;;;;;;;;;;17.90;99.90;;;;;;5109837;28;19946;-85
2023/07/13 08:06:25;;;;;;;;;;;17.90;99.90;;;;;;5109869;28;19932;-86
2023/07/13 08:08:50;;;;;;;;;;;18.00;99.90;;;;;;5092430;28;19988;-85
2023/07/13 08:11:16;;;;;;;;;;;18.00;99.90;;;;;;5091552;28;19935;-88
2023/07/13 08:13:42;;;;;;;;;;;18.00;99.90;;;;;;5076018;28;19924;-85
2023/07/13 08:16:08;;;;;;;;;;;18.10;99.90;;;;;;5075425;28;20007;-86
2023/07/13 08:18:33;;;;;;;;;;;18.20;99.90;;;;;;5077818;28;19924;-86
2023/07/13 08:21:03;;;;;;;;;;;18.30;99.90;;;;;;5131697;28;19928;-88
2023/07/13 08:23:29;;;;;;;;;;;18.40;99.90;;;;;;5117346;28;19920;-88
2023/07/13 08:25:54;;;;;;;;;;;18.40;99.90;;;;;;5124625;28;19924;-84
2023/07/13 08:28:23;;;;;;;;;;;18.50;99.90;;;;;;5118047;28;19955;-87
2023/07/13 08:30:48;;;;;;;;;;;18.50;99.90;;;;;;5088674;28;19928;-86
2023/07/13 08:33:18;;;;;;;;;;;18.60;99.90;;;;;;5073457;28;20325;-87
2023/07/13 08:35:47;;;;;;;;;;;18.70;99.90;;;;;;5089882;28;19946;-87
2023/07/13 08:38:13;;;;;;;;;;;18.80;99.90;;;;;;5127031;27;19969;-85
2023/07/13 08:40:39;;;;;;;;;;;18.90;99.90;;;;;;5058454;28;20007;-86
2023/07/13 08:43:04;;;;;;;;;;;19.10;99.90;;;;;;5075006;28;20013;-85
2023/07/13 08:45:36;;;;;;;;;;;19.30;99.90;;;;;;5092467;28;20362;-86
2023/07/13 08:48:11;;;;;;;;;;;19.40;99.90;;;;;;5075264;28;19924;-85
2023/07/13 08:50:49;;;;;;;;;;;19.70;99.90;;;;;;5075508;28;19977;-86
2023/07/13 08:53:16;;;;;;;;;;;19.40;99.90;;;;;;5092507;28;19924;-86
2023/07/13 08:55:42;;;;;;;;;;;19.90;99.90;;;;;;5074901;28;20379;-87
2023/07/13 08:58:12;;;;;;;;;;;19.80;99.90;;;;;;5125700;28;19930;-87
2023/07/13 09:00:58;;;;;;;;;;;19.90;99.90;;;;;;5109362;28;19924;-85
2023/07/13 09:03:26;;;;;;;;;;;20.10;99.90;;;;;;5077617;28;19954;-86
2023/07/13 09:05:57;;;;;;;;;;;20.20;99.90;;;;;;5108804;28;19924;-85
2023/07/13 09:08:41;;;;;;;;;;;20.30;99.90;;;;;;5075350;28;20310;-85
2023/07/13 09:11:17;;;;;;;;;;;20.30;99.90;;;;;;5105069;28;19932;-85
2023/07/13 09:14:03;;;;;;;;;;;20.30;99.90;;;;;;5074974;28;20029;-85
2023/07/13 09:16:28;;;;;;;;;;;20.30;99.90;;;;;;5091614;28;19928;-86
2023/07/13 09:18:59;;;;;;;;;;;20.40;99.90;;;;;;5074892;28;20390;-86
2023/07/13 09:21:29;;;;;;;;;;;20.50;99.90;;;;;;5076016;28;19924;-86
2023/07/13 09:23:58;;;;;;;;;;;20.50;99.90;;;;;;5095915;28;19969;-86
2023/07/13 09:26:24;;;;;;;;;;;20.50;99.90;;;;;;5111715;28;19977;-87
2023/07/13 09:29:03;;;;;;;;;;;20.50;99.90;;;;;;5062312;28;20317;-86
2023/07/13 09:31:33;;;;;;;;;;;20.40;99.90;;;;;;5070865;28;19931;-86
2023/07/13 09:33:59;;;;;;;;;;;20.40;99.90;;;;;;5113090;28;20321;-86
2023/07/13 09:36:32;;;;;;;;;;;20.30;99.90;;;;;;5092839;28;19971;-86
2023/07/13 09:39:07;;;;;;;;;;;20.00;99.90;;;;;;5096128;28;19931;-86
2023/07/13 09:41:39;;;;;;;;;;;20.00;99.90;;;;;;5118400;27;20257;-86
2023/07/13 09:44:11;;;;;;;;;;;19.80;99.90;;;;;;5097242;28;19924;-86
2023/07/13 09:46:38;;;;;;;;;;;19.70;99.90;;;;;;5096615;28;19950;-86
2023/07/13 09:49:04;;;;;;;;;;;19.70;99.90;;;;;;5096941;28;20387;-86
2023/07/13 09:51:30;;;;;;;;;;;19.70;99.90;;;;;;5095738;28;19931;-86
2023/07/13 09:54:03;;;;;;;;;;;19.70;99.90;;;;;;5095771;28;19924;-86
2023/07/13 09:56:29;;;;;;;;;;;19.60;99.90;;;;;;5077406;28;19931;-87
2023/07/13 09:58:57;;;;;;;;;;;19.40;99.90;;;;;;5112579;28;19947;-86
2023/07/13 10:01:31;;;;;;;;;;;19.50;99.90;;;;;;5095288;28;19924;-86
2023/07/13 10:03:57;;;;;;;;;;;19.50;99.90;;;;;;5094197;28;20371;-86
2023/07/13 10:06:23;;;;;;;;;;;19.70;99.90;;;;;;5094948;28;19931;-86
2023/07/13 10:08:51;;;;;;;;;;;20.00;99.90;;;;;;5095433;28;19924;-85
2023/07/13 10:11:16;;;;;;;;;;;20.40;99.90;;;;;;5094355;28;19928;-86
2023/07/13 10:13:44;;;;;;;;;;;20.70;99.90;;;;;;5078756;28;19931;-87
2023/07/13 10:16:09;;;;;;;;;;;20.70;99.90;;;;;;5095356;28;19924;-86
2023/07/13 10:19:03;;;;;;;;;;;20.80;99.90;;;;;;5095523;28;19931;-86
2023/07/13 10:21:32;;;;;;;;;;;20.90;99.90;;;;;;5082397;28;20015;-89
2023/07/13 10:24:07;;;;;;;;;;;21.00;99.90;;;;;;5078274;28;20019;-87
2023/07/13 10:26:46;;;;;;;;;;;20.90;99.90;;;;;;5094245;28;20008;-85
2023/07/13 10:29:16;;;;;;;;;;;20.50;99.90;;;;;;5111797;28;19932;-85
2023/07/13 10:31:41;;;;;;;;;;;20.30;99.90;;;;;;5077388;28;19930;-86
2023/07/13 10:34:11;;;;;;;;;;;20.30;99.90;;;;;;5077451;28;20006;-87
2023/07/13 10:36:43;;;;;;;;;;;20.10;99.90;;;;;;5094534;28;19975;-86
2023/07/13 10:39:10;;;;;;;;;;;20.30;99.90;;;;;;5078051;28;19971;-85
2023/07/13 10:41:48;;;;;;;;;;;20.50;99.90;;;;;;5093391;28;20283;-88
2023/07/13 10:44:41;;;;;;;;;;;20.80;99.90;;;;;;5128222;27;19935;-86
2023/07/13 10:47:08;;;;;;;;;;;20.80;99.90;;;;;;5119884;27;20019;-86
2023/07/13 10:49:35;;;;;;;;;;;20.50;99.90;;;;;;5094332;28;20065;-86
2023/07/13 10:52:02;;;;;;;;;;;20.50;99.90;;;;;;5094189;28;19924;-86
2023/07/13 10:54:27;;;;;;;;;;;20.40;99.90;;;;;;5111242;28;19924;-85
2023/07/13 10:57:16;;;;;;;;;;;20.40;99.90;;;;;;5127294;27;19930;-85
2023/07/13 10:59:46;;;;;;;;;;;20.30;99.90;;;;;;5123961;27;19924;-85
2023/07/13 11:02:20;;;;;;;;;;;20.10;99.90;;;;;;5093897;28;20309;-86
2023/07/13 11:04:58;;;;;;;;;;;20.00;99.90;;;;;;5093857;28;19924;-86
2023/07/13 11:07:27;;;;;;;;;;;20.00;99.90;;;;;;5093794;28;19924;-85
2023/07/13 11:09:57;;;;;;;;;;;20.40;99.90;;;;;;5093817;28;20376;-84
2023/07/13 11:12:25;;;;;;;;;;;20.70;99.90;;;;;;5075790;28;20348;-85
2023/07/13 11:14:54;;;;;;;;;;;21.00;99.90;;;;;;5076768;28;19928;-85
2023/07/13 11:17:38;;;;;;;;;;;21.30;99.90;;;;;;5093031;28;20275;-85
2023/07/13 11:20:10;;;;;;;;;;;21.30;99.90;;;;;;5110720;28;20014;-88
2023/07/13 11:22:43;;;;;;;;;;;21.40;99.90;;;;;;5076509;28;19924;-85
2023/07/13 11:25:18;;;;;;;;;;;21.60;99.90;;;;;;5093292;28;20403;-86
2023/07/13 11:27:50;;;;;;;;;;;21.80;99.90;;;;;;5103969;28;19985;-85
2023/07/13 11:30:22;;;;;;;;;;;22.10;99.90;;;;;;5076449;28;19935;-85
2023/07/13 11:33:01;;;;;;;;;;;22.30;99.90;;;;;;5096132;28;19931;-85
2023/07/13 11:35:30;;;;;;;;;;;22.10;99.90;;;;;;5081261;28;19932;-86
2023/07/13 11:37:56;;;;;;;;;;;22.00;99.90;;;;;;5088453;28;19999;-85
2023/07/13 11:40:25;;;;;;;;;;;21.70;99.90;;;;;;5077911;28;19924;-85
2023/07/13 11:42:51;;;;;;;;;;;21.30;99.90;;;;;;5101288;28;19932;-84
2023/07/13 11:45:22;;;;;;;;;;;21.40;99.90;;;;;;5078501;28;20307;-85
2023/07/13 11:47:48;;;;;;;;;;;21.70;99.90;;;;;;5110428;28;19924;-85
2023/07/13 11:50:18;;;;;;;;;;;21.90;99.90;;;;;;5098347;28;19924;-86
2023/07/13 11:52:44;;;;;;;;;;;22.10;99.90;;;;;;5100848;28;20331;-84
2023/07/13 11:55:14;;;;;;;;;;;21.80;99.90;;;;;;5075726;28;19924;-86
2023/07/13 11:57:45;;;;;;;;;;;21.80;99.60;;;;;;5092001;28;19928;-85
2023/07/13 12:00:14;;;;;;;;;;;21.90;99.90;;;;;;5110166;28;20372;-86
2023/07/13 12:02:42;;;;;;;;;;;22.20;99.70;;;;;;5109833;28;19998;-85
2023/07/13 12:05:12;;;;;;;;;;;22.30;99.30;;;;;;5090595;28;19924;-86
2023/07/13 12:07:38;;;;;;;;;;;22.40;98.90;;;;;;5092502;28;19924;-86
2023/07/13 12:10:23;;;;;;;;;;;22.40;97.20;;;;;;5075866;28;19924;-85
2023/07/13 12:12:54;;;;;;;;;;;22.30;99.90;;;;;;5088639;28;19924;-85
2023/07/13 12:15:22;;;;;;;;;;;22.30;98.70;;;;;;5092565;28;19925;-84
2023/07/13 12:17:48;;;;;;;;;;;22.20;99.60;;;;;;5092086;28;19990;-85
2023/07/13 12:20:19;;;;;;;;;;;22.30;99.60;;;;;;5075671;28;19924;-84
2023/07/13 12:22:47;;;;;;;;;;;22.20;97.80;;;;;;5092416;28;19924;-85
2023/07/13 12:25:13;;;;;;;;;;;22.00;99.00;;;;;;5092401;28;19947;-85
2023/07/13 12:27:39;;;;;;;;;;;22.00;99.90;;;;;;5052657;28;19924;-85
2023/07/13 12:30:15;;;;;;;;;;;22.10;98.70;;;;;;5074942;28;20291;-85
2023/07/13 12:32:41;;;;;;;;;;;22.40;99.70;;;;;;5075446;28;19927;-85
2023/07/13 12:35:18;;;;;;;;;;;22.60;97.70;;;;;;5092335;28;19928;-85
2023/07/13 12:37:46;;;;;;;;;;;22.60;97.50;;;;;;5084720;28;19924;-84
2023/07/13 12:40:19;;;;;;;;;;;22.80;97.90;;;;;;5091665;28;20011;-84
2023/07/13 12:42:49;;;;;;;;;;;22.90;96.40;;;;;;5085985;28;19924;-85
2023/07/13 12:45:23;;;;;;;;;;;23.00;97.00;;;;;;5126312;28;19924;-85
2023/07/13 12:47:50;;;;;;;;;;;23.10;97.00;;;;;;5074646;28;19924;-85
2023/07/13 12:50:18;;;;;;;;;;;23.30;96.70;;;;;;5108971;28;19950;-85
2023/07/13 12:52:44;;;;;;;;;;;23.10;97.00;;;;;;5109076;28;19931;-85
2023/07/13 12:55:20;;;;;;;;;;;23.20;96.50;;;;;;5109468;28;19925;-85
2023/07/13 12:57:56;;;;;;;;;;;23.20;97.60;;;;;;5093228;28;19924;-85
2023/07/13 13:00:28;;;;;;;;;;;23.20;97.30;;;;;;5089433;28;19924;-84
2023/07/13 13:02:55;;;;;;;;;;;23.10;97.70;;;;;;5129958;27;19924;-84
2023/07/13 13:05:23;;;;;;;;;;;23.10;97.90;;;;;;5079508;28;20269;-85
2023/07/13 13:07:52;;;;;;;;;;;23.00;97.60;;;;;;5096203;28;19924;-84
2023/07/13 13:10:18;;;;;;;;;;;22.80;97.30;;;;;;5125858;27;19997;-84
2023/07/13 13:12:43;;;;;;;;;;;22.60;98.00;;;;;;5095680;28;19931;-85
2023/07/13 13:15:11;;;;;;;;;;;22.30;97.70;;;;;;5079371;28;19924;-86
2023/07/13 13:17:37;;;;;;;;;;;22.40;98.30;;;;;;5106461;27;19986;-86
2023/07/13 13:20:23;;;;;;;;;;;22.60;98.20;;;;;;5079346;28;20341;-85
2023/07/13 13:22:49;;;;;;;;;;;22.70;98.10;;;;;;5088892;28;20328;-85
2023/07/13 13:25:17;;;;;;;;;;;22.50;97.80;;;;;;5091917;28;19935;-85
2023/07/13 13:27:44;;;;;;;;;;;22.50;97.40;;;;;;5091966;28;19924;-85
2023/07/13 13:30:14;;;;;;;;;;;22.50;97.30;;;;;;5112728;28;20317;-85
2023/07/13 13:32:40;;;;;;;;;;;22.60;97.50;;;;;;5112796;28;19924;-85
2023/07/13 13:35:12;;;;;;;;;;;22.50;95.00;;;;;;5078958;28;19947;-85
2023/07/13 13:37:38;;;;;;;;;;;22.30;96.40;;;;;;5093811;28;20390;-85
2023/07/13 13:40:13;;;;;;;;;;;22.20;96.70;;;;;;5104143;28;19924;-86
2023/07/13 13:42:38;;;;;;;;;;;22.40;97.10;;;;;;5095140;28;20007;-85
2023/07/13 13:45:04;;;;;;;;;;;22.90;97.40;;;;;;5074583;28;19972;-88
2023/07/13 13:47:33;;;;;;;;;;;23.20;97.00;;;;;;5078125;28;19924;-85
2023/07/13 13:50:00;;;;;;;;;;;23.40;97.40;;;;;;5078447;28;19974;-85
2023/07/13 13:52:25;;;;;;;;;;;23.70;96.70;;;;;;5095349;28;19924;-85
2023/07/13 13:54:55;;;;;;;;;;;23.70;96.40;;;;;;5112323;28;20398;-87
2023/07/13 13:57:23;;;;;;;;;;;23.70;97.00;;;;;;5077603;28;19927;-85
2023/07/13 13:59:48;;;;;;;;;;;23.60;97.50;;;;;;5129704;27;19931;-85
2023/07/13 14:02:28;;;;;;;;;;;23.40;97.30;;;;;;5078192;28;20283;-85
2023/07/13 14:04:56;;;;;;;;;;;23.20;98.30;;;;;;5078491;28;19924;-85
2023/07/13 14:07:21;;;;;;;;;;;23.30;98.60;;;;;;5094480;28;19967;-86
2023/07/13 14:09:47;;;;;;;;;;;23.30;98.20;;;;;;5061351;28;20379;-85
2023/07/13 14:12:13;;;;;;;;;;;23.00;96.80;;;;;;5093879;28;20007;-85
2023/07/13 14:14:40;;;;;;;;;;;23.00;97.90;;;;;;5078142;28;19931;-85
2023/07/13 14:17:13;;;;;;;;;;;22.60;98.30;;;;;;5077579;28;19923;-86
2023/07/13 14:19:38;;;;;;;;;;;22.40;98.50;;;;;;5095230;28;20004;-87
2023/07/13 14:22:04;;;;;;;;;;;22.30;98.70;;;;;;5077745;28;20280;-85